sensor_id;sensor_type;location;lat;lon;timestamp;P1;durP1;ratioP1;P2;durP2;ratioP2
3781;SDS011;6881;49.962;7.718;2022-08-11T00:00:07;6.23;;;4.70;;
3781;SDS011;6881;49.962;7.718;2022-08-11T00:02:46;4.90;;;4.50;;
3781;SDS011;6881;49.962;7.718;2022-08-11T00:05:16;6.27;;;5.17;;
3781;SDS011;6881;49.962;7.718;2022-08-11T00:07:44;7.30;;;5.23;;
3781;SDS011;6881;49.962;7.718;2022-08-11T00:10:11;5.30;;;4.90;;
3781;SDS011;6881;49.962;7.718;2022-08-11T00:12:39;5.60;;;5.20;;
3781;SDS011;6881;49.962;7.718;2022-08-11T00:15:06;5.10;;;4.70;;
3781;SDS011;6881;49.962;7.718;2022-08-11T00:17:33;5.00;;;4.60;;
3781;SDS011;6881;49.962;7.718;2022-08-11T00:20:06;5.00;;;4.60;;
3781;SDS011;6881;49.962;7.718;2022-08-11T00:22:33;4.70;;;4.30;;
3781;SDS011;6881;49.962;7.718;2022-08-11T00:25:10;5.27;;;4.73;;
3781;SDS011;6881;49.962;7.718;2022-08-11T00:27:38;5.70;;;5.20;;
3781;SDS011;6881;49.962;7.718;2022-08-11T00:30:05;5.93;;;5.30;;
3781;SDS011;6881;49.962;7.718;2022-08-11T00:32:31;8.30;;;5.30;;
3781;SDS011;6881;49.962;7.718;2022-08-11T00:34:57;5.60;;;5.13;;
3781;SDS011;6881;49.962;7.718;2022-08-11T00:37:24;5.47;;;4.97;;
3781;SDS011;6881;49.962;7.718;2022-08-11T00:39:51;6.40;;;5.80;;
3781;SDS011;6881;49.962;7.718;2022-08-11T00:45:38;5.13;;;4.63;;
3781;SDS011;6881;49.962;7.718;2022-08-11T00:48:22;5.20;;;4.80;;
3781;SDS011;6881;49.962;7.718;2022-08-11T00:51:35;6.97;;;5.50;;
3781;SDS011;6881;49.962;7.718;2022-08-11T01:08:35;4.73;;;4.33;;
3781;SDS011;6881;49.962;7.718;2022-08-11T01:20:26;4.80;;;4.40;;
3781;SDS011;6881;49.962;7.718;2022-08-11T01:46:48;5.37;;;4.90;;
3781;SDS011;6881;49.962;7.718;2022-08-11T01:49:31;5.57;;;5.17;;
3781;SDS011;6881;49.962;7.718;2022-08-11T01:52:20;6.07;;;5.57;;
3781;SDS011;6881;49.962;7.718;2022-08-11T01:57:35;6.80;;;5.70;;
3781;SDS011;6881;49.962;7.718;2022-08-11T02:00:07;6.83;;;5.37;;
3781;SDS011;6881;49.962;7.718;2022-08-11T02:11:04;6.27;;;5.77;;
3781;SDS011;6881;49.962;7.718;2022-08-11T02:19:41;5.40;;;5.00;;
3781;SDS011;6881;49.962;7.718;2022-08-11T02:22:30;5.53;;;5.03;;
3781;SDS011;6881;49.962;7.718;2022-08-11T02:30:45;5.50;;;4.80;;
3781;SDS011;6881;49.962;7.718;2022-08-11T02:42:25;5.87;;;5.37;;
3781;SDS011;6881;49.962;7.718;2022-08-11T02:50:56;5.50;;;5.10;;
3781;SDS011;6881;49.962;7.718;2022-08-11T02:53:31;7.10;;;6.40;;
3781;SDS011;6881;49.962;7.718;2022-08-11T02:56:05;6.60;;;5.03;;
3781;SDS011;6881;49.962;7.718;2022-08-11T03:01:47;5.77;;;5.37;;
3781;SDS011;6881;49.962;7.718;2022-08-11T03:04:24;5.80;;;5.30;;
3781;SDS011;6881;49.962;7.718;2022-08-11T03:07:00;5.80;;;5.30;;
3781;SDS011;6881;49.962;7.718;2022-08-11T03:12:05;5.20;;;4.80;;
3781;SDS011;6881;49.962;7.718;2022-08-11T03:14:57;5.63;;;5.23;;
3781;SDS011;6881;49.962;7.718;2022-08-11T03:17:52;5.93;;;5.47;;
3781;SDS011;6881;49.962;7.718;2022-08-11T03:20:48;5.70;;;5.10;;
3781;SDS011;6881;49.962;7.718;2022-08-11T03:26:14;6.90;;;5.57;;
3781;SDS011;6881;49.962;7.718;2022-08-11T03:34:37;5.93;;;5.43;;
3781;SDS011;6881;49.962;7.718;2022-08-11T03:40:19;6.80;;;5.00;;
3781;SDS011;6881;49.962;7.718;2022-08-11T03:46:02;6.30;;;5.70;;
3781;SDS011;6881;49.962;7.718;2022-08-11T03:51:21;6.00;;;5.50;;
3781;SDS011;6881;49.962;7.718;2022-08-11T04:02:54;5.93;;;5.43;;
3781;SDS011;6881;49.962;7.718;2022-08-11T04:06:01;6.30;;;5.80;;
3781;SDS011;6881;49.962;7.718;2022-08-11T04:14:42;5.90;;;5.40;;
3781;SDS011;6881;49.962;7.718;2022-08-11T04:20:22;6.00;;;5.50;;
3781;SDS011;6881;49.962;7.718;2022-08-11T04:31:30;6.43;;;5.83;;
3781;SDS011;6881;49.962;7.718;2022-08-11T04:37:17;6.17;;;5.57;;
3781;SDS011;6881;49.962;7.718;2022-08-11T04:58:08;5.70;;;5.20;;
3781;SDS011;6881;49.962;7.718;2022-08-11T05:13:00;6.20;;;5.70;;
3781;SDS011;6881;49.962;7.718;2022-08-11T05:15:48;5.90;;;5.40;;
3781;SDS011;6881;49.962;7.718;2022-08-11T05:18:34;5.80;;;5.30;;
3781;SDS011;6881;49.962;7.718;2022-08-11T05:21:24;5.67;;;5.17;;
3781;SDS011;6881;49.962;7.718;2022-08-11T05:24:19;6.33;;;5.80;;
3781;SDS011;6881;49.962;7.718;2022-08-11T05:27:04;5.80;;;5.30;;
3781;SDS011;6881;49.962;7.718;2022-08-11T05:29:54;5.13;;;4.73;;
3781;SDS011;6881;49.962;7.718;2022-08-11T05:32:41;6.17;;;5.10;;
3781;SDS011;6881;49.962;7.718;2022-08-11T05:35:44;5.93;;;5.03;;
3781;SDS011;6881;49.962;7.718;2022-08-11T05:38:22;6.23;;;5.63;;
3781;SDS011;6881;49.962;7.718;2022-08-11T05:41:08;6.00;;;5.40;;
3781;SDS011;6881;49.962;7.718;2022-08-11T05:43:54;5.20;;;4.80;;
3781;SDS011;6881;49.962;7.718;2022-08-11T05:46:41;6.20;;;5.60;;
3781;SDS011;6881;49.962;7.718;2022-08-11T05:49:28;5.40;;;4.90;;
3781;SDS011;6881;49.962;7.718;2022-08-11T05:52:21;5.00;;;4.53;;
3781;SDS011;6881;49.962;7.718;2022-08-11T05:55:07;7.00;;;5.10;;
3781;SDS011;6881;49.962;7.718;2022-08-11T05:57:55;5.80;;;4.50;;
3781;SDS011;6881;49.962;7.718;2022-08-11T06:00:29;5.87;;;5.30;;
3781;SDS011;6881;49.962;7.718;2022-08-11T06:02:56;5.47;;;5.07;;
3781;SDS011;6881;49.962;7.718;2022-08-11T06:05:34;6.63;;;4.93;;
3781;SDS011;6881;49.962;7.718;2022-08-11T06:08:01;5.30;;;4.90;;
3781;SDS011;6881;49.962;7.718;2022-08-11T06:10:33;5.37;;;4.97;;
3781;SDS011;6881;49.962;7.718;2022-08-11T06:13:04;6.90;;;4.60;;
3781;SDS011;6881;49.962;7.718;2022-08-11T06:15:31;5.87;;;5.37;;
3781;SDS011;6881;49.962;7.718;2022-08-11T06:17:58;5.60;;;5.10;;
3781;SDS011;6881;49.962;7.718;2022-08-11T06:20:25;4.83;;;4.43;;
3781;SDS011;6881;49.962;7.718;2022-08-11T06:22:58;6.53;;;5.27;;
3781;SDS011;6881;49.962;7.718;2022-08-11T06:25:30;6.10;;;5.60;;
3781;SDS011;6881;49.962;7.718;2022-08-11T06:27:57;6.53;;;5.43;;
3781;SDS011;6881;49.962;7.718;2022-08-11T06:30:40;5.57;;;4.93;;
3781;SDS011;6881;49.962;7.718;2022-08-11T06:33:07;6.20;;;4.40;;
3781;SDS011;6881;49.962;7.718;2022-08-11T06:38:22;5.20;;;4.80;;
3781;SDS011;6881;49.962;7.718;2022-08-11T06:40:53;4.50;;;4.10;;
3781;SDS011;6881;49.962;7.718;2022-08-11T06:46:37;4.30;;;4.00;;
3781;SDS011;6881;49.962;7.718;2022-08-11T06:49:07;5.23;;;4.83;;
3781;SDS011;6881;49.962;7.718;2022-08-11T06:52:03;4.70;;;4.30;;
3781;SDS011;6881;49.962;7.718;2022-08-11T06:54:31;4.93;;;4.37;;
3781;SDS011;6881;49.962;7.718;2022-08-11T06:56:59;4.93;;;4.43;;
3781;SDS011;6881;49.962;7.718;2022-08-11T06:59:43;5.00;;;4.50;;
3781;SDS011;6881;49.962;7.718;2022-08-11T07:14:31;4.83;;;3.97;;
3781;SDS011;6881;49.962;7.718;2022-08-11T07:17:19;4.20;;;3.90;;
3781;SDS011;6881;49.962;7.718;2022-08-11T07:19:50;4.37;;;3.93;;
3781;SDS011;6881;49.962;7.718;2022-08-11T07:22:36;4.67;;;4.27;;
3781;SDS011;6881;49.962;7.718;2022-08-11T07:25:21;4.87;;;4.40;;
3781;SDS011;6881;49.962;7.718;2022-08-11T07:28:39;4.37;;;4.03;;
3781;SDS011;6881;49.962;7.718;2022-08-11T07:31:19;4.40;;;4.00;;
3781;SDS011;6881;49.962;7.718;2022-08-11T07:33:49;4.20;;;3.80;;
3781;SDS011;6881;49.962;7.718;2022-08-11T07:36:16;5.80;;;4.13;;
3781;SDS011;6881;49.962;7.718;2022-08-11T07:38:43;3.93;;;3.63;;
3781;SDS011;6881;49.962;7.718;2022-08-11T07:41:15;4.00;;;3.70;;
3781;SDS011;6881;49.962;7.718;2022-08-11T07:43:42;3.70;;;3.40;;
3781;SDS011;6881;49.962;7.718;2022-08-11T07:46:13;3.70;;;3.10;;
3781;SDS011;6881;49.962;7.718;2022-08-11T07:48:57;6.43;;;3.97;;
3781;SDS011;6881;49.962;7.718;2022-08-11T07:51:43;4.63;;;3.80;;
3781;SDS011;6881;49.962;7.718;2022-08-11T07:54:27;5.03;;;3.87;;
3781;SDS011;6881;49.962;7.718;2022-08-11T07:56:54;4.17;;;3.70;;
3781;SDS011;6881;49.962;7.718;2022-08-11T07:59:20;6.00;;;3.60;;
3781;SDS011;6881;49.962;7.718;2022-08-11T08:02:05;4.20;;;3.80;;
3781;SDS011;6881;49.962;7.718;2022-08-11T08:04:49;3.87;;;3.63;;
3781;SDS011;6881;49.962;7.718;2022-08-11T08:07:33;4.10;;;3.80;;
3781;SDS011;6881;49.962;7.718;2022-08-11T08:10:19;4.40;;;4.10;;
3781;SDS011;6881;49.962;7.718;2022-08-11T08:13:04;4.13;;;3.80;;
3781;SDS011;6881;49.962;7.718;2022-08-11T08:15:49;5.43;;;3.83;;
3781;SDS011;6881;49.962;7.718;2022-08-11T08:18:34;4.00;;;3.70;;
3781;SDS011;6881;49.962;7.718;2022-08-11T08:21:02;4.47;;;4.07;;
3781;SDS011;6881;49.962;7.718;2022-08-11T08:23:36;4.33;;;3.57;;
3781;SDS011;6881;49.962;7.718;2022-08-11T08:26:03;4.67;;;4.27;;
3781;SDS011;6881;49.962;7.718;2022-08-11T08:28:51;5.07;;;3.87;;
3781;SDS011;6881;49.962;7.718;2022-08-11T08:31:16;4.17;;;3.77;;
3781;SDS011;6881;49.962;7.718;2022-08-11T08:33:42;3.73;;;3.43;;
3781;SDS011;6881;49.962;7.718;2022-08-11T08:36:08;4.53;;;4.10;;
3781;SDS011;6881;49.962;7.718;2022-08-11T08:38:39;4.40;;;3.50;;
3781;SDS011;6881;49.962;7.718;2022-08-11T08:41:06;3.30;;;3.00;;
3781;SDS011;6881;49.962;7.718;2022-08-11T08:43:32;4.67;;;3.97;;
3781;SDS011;6881;49.962;7.718;2022-08-11T08:45:57;3.63;;;3.33;;
3781;SDS011;6881;49.962;7.718;2022-08-11T08:48:24;5.03;;;3.50;;
3781;SDS011;6881;49.962;7.718;2022-08-11T08:50:51;3.50;;;3.20;;
3781;SDS011;6881;49.962;7.718;2022-08-11T08:53:38;3.87;;;3.43;;
3781;SDS011;6881;49.962;7.718;2022-08-11T08:56:05;3.87;;;2.87;;
3781;SDS011;6881;49.962;7.718;2022-08-11T08:58:32;3.70;;;3.40;;
3781;SDS011;6881;49.962;7.718;2022-08-11T09:00:59;3.70;;;2.73;;
3781;SDS011;6881;49.962;7.718;2022-08-11T09:03:24;3.70;;;3.40;;
3781;SDS011;6881;49.962;7.718;2022-08-11T09:05:52;5.23;;;3.30;;
3781;SDS011;6881;49.962;7.718;2022-08-11T09:08:19;5.03;;;3.27;;
3781;SDS011;6881;49.962;7.718;2022-08-11T09:10:46;3.80;;;3.50;;
3781;SDS011;6881;49.962;7.718;2022-08-11T09:13:32;4.07;;;3.77;;
3781;SDS011;6881;49.962;7.718;2022-08-11T09:15:58;4.40;;;3.17;;
3781;SDS011;6881;49.962;7.718;2022-08-11T09:18:23;4.30;;;3.20;;
3781;SDS011;6881;49.962;7.718;2022-08-11T09:20:49;3.83;;;3.53;;
3781;SDS011;6881;49.962;7.718;2022-08-11T09:23:14;3.97;;;3.57;;
3781;SDS011;6881;49.962;7.718;2022-08-11T09:25:59;3.60;;;3.30;;
3781;SDS011;6881;49.962;7.718;2022-08-11T09:28:44;3.40;;;3.10;;
3781;SDS011;6881;49.962;7.718;2022-08-11T09:31:11;4.93;;;3.23;;
3781;SDS011;6881;49.962;7.718;2022-08-11T09:33:37;4.00;;;3.70;;
3781;SDS011;6881;49.962;7.718;2022-08-11T09:36:03;3.47;;;3.27;;
3781;SDS011;6881;49.962;7.718;2022-08-11T09:38:49;5.40;;;3.30;;
3781;SDS011;6881;49.962;7.718;2022-08-11T09:41:34;3.53;;;3.23;;
3781;SDS011;6881;49.962;7.718;2022-08-11T09:44:00;2.90;;;2.70;;
3781;SDS011;6881;49.962;7.718;2022-08-11T09:46:44;4.33;;;3.00;;
3781;SDS011;6881;49.962;7.718;2022-08-11T09:49:10;3.40;;;3.10;;
3781;SDS011;6881;49.962;7.718;2022-08-11T09:51:36;4.03;;;3.63;;
3781;SDS011;6881;49.962;7.718;2022-08-11T09:54:01;3.73;;;3.43;;
3781;SDS011;6881;49.962;7.718;2022-08-11T09:56:30;3.27;;;2.97;;
3781;SDS011;6881;49.962;7.718;2022-08-11T09:59:16;9.20;;;3.73;;
3781;SDS011;6881;49.962;7.718;2022-08-11T10:01:43;5.00;;;3.30;;
3781;SDS011;6881;49.962;7.718;2022-08-11T10:04:14;3.40;;;3.10;;
3781;SDS011;6881;49.962;7.718;2022-08-11T10:06:41;5.20;;;3.07;;
3781;SDS011;6881;49.962;7.718;2022-08-11T10:09:27;4.00;;;3.50;;
3781;SDS011;6881;49.962;7.718;2022-08-11T10:12:05;2.83;;;2.63;;
3781;SDS011;6881;49.962;7.718;2022-08-11T10:14:33;3.00;;;2.80;;
3781;SDS011;6881;49.962;7.718;2022-08-11T10:17:25;3.60;;;3.30;;
3781;SDS011;6881;49.962;7.718;2022-08-11T10:19:52;6.73;;;3.20;;
3781;SDS011;6881;49.962;7.718;2022-08-11T10:22:21;3.53;;;3.23;;
3781;SDS011;6881;49.962;7.718;2022-08-11T10:25:06;3.50;;;3.20;;
3781;SDS011;6881;49.962;7.718;2022-08-11T10:27:50;3.87;;;3.47;;
3781;SDS011;6881;49.962;7.718;2022-08-11T10:30:23;8.20;;;3.20;;
3781;SDS011;6881;49.962;7.718;2022-08-11T10:33:27;4.43;;;3.40;;
3781;SDS011;6881;49.962;7.718;2022-08-11T10:36:11;3.87;;;3.57;;
3781;SDS011;6881;49.962;7.718;2022-08-11T10:38:38;6.23;;;4.03;;
3781;SDS011;6881;49.962;7.718;2022-08-11T10:41:03;4.27;;;3.80;;
3781;SDS011;6881;49.962;7.718;2022-08-11T10:43:47;3.30;;;3.10;;
3781;SDS011;6881;49.962;7.718;2022-08-11T10:46:13;4.97;;;3.40;;
3781;SDS011;6881;49.962;7.718;2022-08-11T10:49:17;3.90;;;3.50;;
3781;SDS011;6881;49.962;7.718;2022-08-11T10:51:43;4.03;;;3.30;;
3781;SDS011;6881;49.962;7.718;2022-08-11T10:54:27;3.37;;;3.07;;
3781;SDS011;6881;49.962;7.718;2022-08-11T10:57:11;3.80;;;3.33;;
3781;SDS011;6881;49.962;7.718;2022-08-11T10:59:57;3.73;;;3.33;;
3781;SDS011;6881;49.962;7.718;2022-08-11T11:02:23;4.53;;;3.87;;
3781;SDS011;6881;49.962;7.718;2022-08-11T11:04:56;4.70;;;3.37;;
3781;SDS011;6881;49.962;7.718;2022-08-11T11:07:38;3.13;;;2.93;;
3781;SDS011;6881;49.962;7.718;2022-08-11T11:10:27;3.03;;;2.83;;
3781;SDS011;6881;49.962;7.718;2022-08-11T11:12:53;3.57;;;3.37;;
3781;SDS011;6881;49.962;7.718;2022-08-11T11:15:40;2.93;;;2.63;;
3781;SDS011;6881;49.962;7.718;2022-08-11T11:18:27;3.70;;;3.40;;
3781;SDS011;6881;49.962;7.718;2022-08-11T11:21:04;3.73;;;3.43;;
3781;SDS011;6881;49.962;7.718;2022-08-11T11:34:22;3.63;;;2.80;;
3781;SDS011;6881;49.962;7.718;2022-08-11T11:36:54;3.63;;;3.33;;
3781;SDS011;6881;49.962;7.718;2022-08-11T11:39:24;3.47;;;3.23;;
3781;SDS011;6881;49.962;7.718;2022-08-11T11:41:55;5.07;;;3.50;;
3781;SDS011;6881;49.962;7.718;2022-08-11T11:44:23;3.43;;;3.17;;
3781;SDS011;6881;49.962;7.718;2022-08-11T11:46:49;4.17;;;3.57;;
3781;SDS011;6881;49.962;7.718;2022-08-11T11:49:16;3.43;;;3.00;;
3781;SDS011;6881;49.962;7.718;2022-08-11T11:51:46;4.23;;;3.80;;
3781;SDS011;6881;49.962;7.718;2022-08-11T11:54:15;4.47;;;3.40;;
3781;SDS011;6881;49.962;7.718;2022-08-11T11:56:44;3.22;;;2.92;;
3781;SDS011;6881;49.962;7.718;2022-08-11T11:59:10;3.60;;;3.30;;
3781;SDS011;6881;49.962;7.718;2022-08-11T12:01:55;3.73;;;3.43;;
3781;SDS011;6881;49.962;7.718;2022-08-11T12:04:21;3.70;;;3.47;;
3781;SDS011;6881;49.962;7.718;2022-08-11T12:06:47;3.80;;;3.50;;
3781;SDS011;6881;49.962;7.718;2022-08-11T12:09:13;4.60;;;4.20;;
3781;SDS011;6881;49.962;7.718;2022-08-11T12:11:42;3.43;;;3.23;;
3781;SDS011;6881;49.962;7.718;2022-08-11T12:14:26;5.77;;;4.60;;
3781;SDS011;6881;49.962;7.718;2022-08-11T12:16:52;3.80;;;3.50;;
3781;SDS011;6881;49.962;7.718;2022-08-11T12:19:22;4.07;;;3.77;;
3781;SDS011;6881;49.962;7.718;2022-08-11T12:21:48;3.53;;;3.33;;
3781;SDS011;6881;49.962;7.718;2022-08-11T12:24:33;3.97;;;3.73;;
3781;SDS011;6881;49.962;7.718;2022-08-11T12:27:17;3.83;;;3.60;;
3781;SDS011;6881;49.962;7.718;2022-08-11T12:29:50;4.30;;;3.90;;
3781;SDS011;6881;49.962;7.718;2022-08-11T12:32:19;3.80;;;3.50;;
3781;SDS011;6881;49.962;7.718;2022-08-11T12:34:45;3.40;;;3.10;;
3781;SDS011;6881;49.962;7.718;2022-08-11T12:37:10;4.10;;;3.73;;
3781;SDS011;6881;49.962;7.718;2022-08-11T12:39:40;4.73;;;3.80;;
3781;SDS011;6881;49.962;7.718;2022-08-11T12:42:33;3.77;;;3.47;;
3781;SDS011;6881;49.962;7.718;2022-08-11T12:45:17;4.37;;;3.97;;
3781;SDS011;6881;49.962;7.718;2022-08-11T12:47:52;4.10;;;3.80;;
3781;SDS011;6881;49.962;7.718;2022-08-11T12:50:55;4.00;;;3.70;;
3781;SDS011;6881;49.962;7.718;2022-08-11T12:53:53;4.13;;;3.70;;
3781;SDS011;6881;49.962;7.718;2022-08-11T12:56:21;4.13;;;3.80;;
3781;SDS011;6881;49.962;7.718;2022-08-11T12:59:11;4.10;;;3.53;;
3781;SDS011;6881;49.962;7.718;2022-08-11T13:01:56;4.07;;;3.83;;
3781;SDS011;6881;49.962;7.718;2022-08-11T13:04:40;4.40;;;4.10;;
3781;SDS011;6881;49.962;7.718;2022-08-11T13:07:18;3.60;;;3.40;;
3781;SDS011;6881;49.962;7.718;2022-08-11T13:09:44;4.23;;;3.93;;
3781;SDS011;6881;49.962;7.718;2022-08-11T13:12:10;3.87;;;3.50;;
3781;SDS011;6881;49.962;7.718;2022-08-11T13:14:54;4.37;;;4.07;;
3781;SDS011;6881;49.962;7.718;2022-08-11T13:17:20;3.90;;;3.60;;
3781;SDS011;6881;49.962;7.718;2022-08-11T13:19:47;3.87;;;3.57;;
3781;SDS011;6881;49.962;7.718;2022-08-11T13:22:12;4.97;;;4.47;;
3781;SDS011;6881;49.962;7.718;2022-08-11T13:24:40;3.80;;;3.50;;
3781;SDS011;6881;49.962;7.718;2022-08-11T13:27:06;3.97;;;3.47;;
3781;SDS011;6881;49.962;7.718;2022-08-11T13:29:31;4.07;;;3.77;;
3781;SDS011;6881;49.962;7.718;2022-08-11T13:31:57;3.40;;;3.20;;
3781;SDS011;6881;49.962;7.718;2022-08-11T13:34:25;4.23;;;3.77;;
3781;SDS011;6881;49.962;7.718;2022-08-11T13:36:52;4.37;;;4.07;;
3781;SDS011;6881;49.962;7.718;2022-08-11T13:39:22;3.67;;;3.37;;
3781;SDS011;6881;49.962;7.718;2022-08-11T13:41:49;4.47;;;4.07;;
3781;SDS011;6881;49.962;7.718;2022-08-11T13:44:15;4.30;;;3.80;;
3781;SDS011;6881;49.962;7.718;2022-08-11T13:46:41;6.17;;;3.63;;
3781;SDS011;6881;49.962;7.718;2022-08-11T13:49:07;4.50;;;4.20;;
3781;SDS011;6881;49.962;7.718;2022-08-11T13:51:33;3.70;;;3.40;;
3781;SDS011;6881;49.962;7.718;2022-08-11T13:53:59;4.30;;;3.70;;
3781;SDS011;6881;49.962;7.718;2022-08-11T13:56:33;4.70;;;4.30;;
3781;SDS011;6881;49.962;7.718;2022-08-11T13:59:04;4.20;;;3.80;;
3781;SDS011;6881;49.962;7.718;2022-08-11T14:01:31;6.10;;;4.50;;
3781;SDS011;6881;49.962;7.718;2022-08-11T14:04:07;4.53;;;3.80;;
3781;SDS011;6881;49.962;7.718;2022-08-11T14:06:37;4.53;;;4.23;;
3781;SDS011;6881;49.962;7.718;2022-08-11T14:09:13;4.87;;;4.20;;
3781;SDS011;6881;49.962;7.718;2022-08-11T14:11:40;4.23;;;3.83;;
3781;SDS011;6881;49.962;7.718;2022-08-11T14:14:26;5.00;;;4.60;;
3781;SDS011;6881;49.962;7.718;2022-08-11T14:16:56;4.87;;;4.47;;
3781;SDS011;6881;49.962;7.718;2022-08-11T14:19:25;4.80;;;4.40;;
3781;SDS011;6881;49.962;7.718;2022-08-11T14:21:51;4.87;;;4.53;;
3781;SDS011;6881;49.962;7.718;2022-08-11T14:24:35;5.80;;;4.07;;
3781;SDS011;6881;49.962;7.718;2022-08-11T14:27:02;4.20;;;3.90;;
3781;SDS011;6881;49.962;7.718;2022-08-11T14:29:28;4.23;;;3.97;;
3781;SDS011;6881;49.962;7.718;2022-08-11T14:31:57;4.17;;;3.87;;
3781;SDS011;6881;49.962;7.718;2022-08-11T14:34:26;5.07;;;4.67;;
3781;SDS011;6881;49.962;7.718;2022-08-11T14:36:58;4.97;;;4.47;;
3781;SDS011;6881;49.962;7.718;2022-08-11T14:39:30;4.40;;;4.10;;
3781;SDS011;6881;49.962;7.718;2022-08-11T14:42:01;5.80;;;4.63;;
3781;SDS011;6881;49.962;7.718;2022-08-11T14:44:51;4.40;;;4.10;;
3781;SDS011;6881;49.962;7.718;2022-08-11T14:47:38;4.70;;;4.30;;
3781;SDS011;6881;49.962;7.718;2022-08-11T14:50:05;4.73;;;4.40;;
3781;SDS011;6881;49.962;7.718;2022-08-11T14:52:33;5.30;;;4.80;;
3781;SDS011;6881;49.962;7.718;2022-08-11T14:55:01;4.80;;;4.43;;
3781;SDS011;6881;49.962;7.718;2022-08-11T14:57:45;5.20;;;4.50;;
3781;SDS011;6881;49.962;7.718;2022-08-11T15:00:12;4.70;;;4.30;;
3781;SDS011;6881;49.962;7.718;2022-08-11T15:02:42;5.33;;;4.93;;
3781;SDS011;6881;49.962;7.718;2022-08-11T15:05:27;5.10;;;4.70;;
3781;SDS011;6881;49.962;7.718;2022-08-11T15:07:53;5.50;;;4.87;;
3781;SDS011;6881;49.962;7.718;2022-08-11T15:10:20;5.27;;;4.97;;
3781;SDS011;6881;49.962;7.718;2022-08-11T15:12:46;5.53;;;5.13;;
3781;SDS011;6881;49.962;7.718;2022-08-11T15:15:12;5.17;;;4.87;;
3781;SDS011;6881;49.962;7.718;2022-08-11T15:17:57;5.53;;;5.03;;
3781;SDS011;6881;49.962;7.718;2022-08-11T15:20:24;5.13;;;4.73;;
3781;SDS011;6881;49.962;7.718;2022-08-11T15:23:09;5.30;;;4.90;;
3781;SDS011;6881;49.962;7.718;2022-08-11T15:25:54;6.40;;;5.30;;
3781;SDS011;6881;49.962;7.718;2022-08-11T15:28:22;5.60;;;5.20;;
3781;SDS011;6881;49.962;7.718;2022-08-11T15:31:07;6.00;;;5.40;;
3781;SDS011;6881;49.962;7.718;2022-08-11T15:33:51;8.77;;;5.90;;
3781;SDS011;6881;49.962;7.718;2022-08-11T15:36:38;7.00;;;5.37;;
3781;SDS011;6881;49.962;7.718;2022-08-11T15:39:27;5.47;;;4.97;;
3781;SDS011;6881;49.962;7.718;2022-08-11T15:41:59;5.20;;;4.80;;
3781;SDS011;6881;49.962;7.718;2022-08-11T15:44:46;5.67;;;5.27;;
3781;SDS011;6881;49.962;7.718;2022-08-11T15:47:37;5.80;;;5.23;;
3781;SDS011;6881;49.962;7.718;2022-08-11T15:50:09;5.57;;;5.13;;
3781;SDS011;6881;49.962;7.718;2022-08-11T15:52:41;5.40;;;5.00;;
3781;SDS011;6881;49.962;7.718;2022-08-11T15:55:11;5.03;;;4.73;;
3781;SDS011;6881;49.962;7.718;2022-08-11T15:57:37;5.60;;;5.10;;
3781;SDS011;6881;49.962;7.718;2022-08-11T16:00:22;5.60;;;5.20;;
3781;SDS011;6881;49.962;7.718;2022-08-11T16:03:06;6.63;;;5.70;;
3781;SDS011;6881;49.962;7.718;2022-08-11T16:05:51;6.87;;;5.43;;
3781;SDS011;6881;49.962;7.718;2022-08-11T16:08:18;5.90;;;5.40;;
3781;SDS011;6881;49.962;7.718;2022-08-11T16:10:47;4.77;;;4.37;;
3781;SDS011;6881;49.962;7.718;2022-08-11T16:13:13;5.73;;;5.23;;
3781;SDS011;6881;49.962;7.718;2022-08-11T16:15:39;5.17;;;4.67;;
3781;SDS011;6881;49.962;7.718;2022-08-11T16:18:28;8.27;;;4.50;;
3781;SDS011;6881;49.962;7.718;2022-08-11T16:21:13;6.17;;;5.43;;
3781;SDS011;6881;49.962;7.718;2022-08-11T16:23:42;5.83;;;5.20;;
3781;SDS011;6881;49.962;7.718;2022-08-11T16:26:09;4.77;;;4.47;;
3781;SDS011;6881;49.962;7.718;2022-08-11T16:28:37;5.40;;;5.00;;
3781;SDS011;6881;49.962;7.718;2022-08-11T16:31:03;5.00;;;4.60;;
3781;SDS011;6881;49.962;7.718;2022-08-11T16:33:34;4.77;;;4.47;;
3781;SDS011;6881;49.962;7.718;2022-08-11T16:36:02;6.30;;;5.13;;
3781;SDS011;6881;49.962;7.718;2022-08-11T16:38:46;4.83;;;4.43;;
3781;SDS011;6881;49.962;7.718;2022-08-11T16:41:16;5.47;;;5.07;;
3781;SDS011;6881;49.962;7.718;2022-08-11T16:44:05;5.70;;;5.30;;
3781;SDS011;6881;49.962;7.718;2022-08-11T16:46:53;5.07;;;4.67;;
3781;SDS011;6881;49.962;7.718;2022-08-11T16:49:28;6.37;;;5.40;;
3781;SDS011;6881;49.962;7.718;2022-08-11T16:51:59;5.37;;;4.87;;
3781;SDS011;6881;49.962;7.718;2022-08-11T16:54:32;5.27;;;4.90;;
3781;SDS011;6881;49.962;7.718;2022-08-11T16:56:59;4.93;;;4.50;;
3781;SDS011;6881;49.962;7.718;2022-08-11T16:59:47;4.73;;;4.43;;
3781;SDS011;6881;49.962;7.718;2022-08-11T17:02:17;5.30;;;4.80;;
3781;SDS011;6881;49.962;7.718;2022-08-11T17:05:05;5.70;;;5.00;;
3781;SDS011;6881;49.962;7.718;2022-08-11T17:07:51;4.93;;;4.57;;
3781;SDS011;6881;49.962;7.718;2022-08-11T17:11:10;4.87;;;4.47;;
3781;SDS011;6881;49.962;7.718;2022-08-11T17:13:57;5.33;;;4.93;;
3781;SDS011;6881;49.962;7.718;2022-08-11T17:16:27;5.40;;;4.90;;
3781;SDS011;6881;49.962;7.718;2022-08-11T17:18:57;4.80;;;4.07;;
3781;SDS011;6881;49.962;7.718;2022-08-11T17:21:29;5.20;;;4.80;;
3781;SDS011;6881;49.962;7.718;2022-08-11T17:23:58;6.10;;;4.70;;
3781;SDS011;6881;49.962;7.718;2022-08-11T17:26:31;5.17;;;4.77;;
3781;SDS011;6881;49.962;7.718;2022-08-11T17:29:19;5.30;;;4.80;;
3781;SDS011;6881;49.962;7.718;2022-08-11T17:31:47;4.57;;;4.17;;
3781;SDS011;6881;49.962;7.718;2022-08-11T17:34:33;5.07;;;4.40;;
3781;SDS011;6881;49.962;7.718;2022-08-11T17:37:18;4.87;;;4.57;;
3781;SDS011;6881;49.962;7.718;2022-08-11T17:39:44;4.83;;;4.43;;
3781;SDS011;6881;49.962;7.718;2022-08-11T17:42:10;4.67;;;4.37;;
3781;SDS011;6881;49.962;7.718;2022-08-11T17:44:54;5.10;;;4.70;;
3781;SDS011;6881;49.962;7.718;2022-08-11T17:47:39;5.13;;;4.83;;
3781;SDS011;6881;49.962;7.718;2022-08-11T17:50:23;4.33;;;4.03;;
3781;SDS011;6881;49.962;7.718;2022-08-11T17:52:49;5.20;;;4.20;;
3781;SDS011;6881;49.962;7.718;2022-08-11T17:55:34;4.97;;;4.57;;
3781;SDS011;6881;49.962;7.718;2022-08-11T17:58:19;5.17;;;4.77;;
3781;SDS011;6881;49.962;7.718;2022-08-11T18:01:04;4.40;;;4.10;;
3781;SDS011;6881;49.962;7.718;2022-08-11T18:03:30;4.83;;;4.50;;
3781;SDS011;6881;49.962;7.718;2022-08-11T18:06:00;5.23;;;4.73;;
3781;SDS011;6881;49.962;7.718;2022-08-11T18:08:27;6.80;;;4.30;;
3781;SDS011;6881;49.962;7.718;2022-08-11T18:11:12;4.80;;;4.40;;
3781;SDS011;6881;49.962;7.718;2022-08-11T18:13:58;5.00;;;4.60;;
3781;SDS011;6881;49.962;7.718;2022-08-11T18:16:44;5.17;;;4.70;;
3781;SDS011;6881;49.962;7.718;2022-08-11T18:19:28;6.00;;;5.50;;
3781;SDS011;6881;49.962;7.718;2022-08-11T18:22:15;4.90;;;4.43;;
3781;SDS011;6881;49.962;7.718;2022-08-11T18:25:02;4.90;;;4.50;;
3781;SDS011;6881;49.962;7.718;2022-08-11T18:27:51;5.70;;;4.40;;
3781;SDS011;6881;49.962;7.718;2022-08-11T18:30:38;5.60;;;4.47;;
3781;SDS011;6881;49.962;7.718;2022-08-11T18:33:25;5.40;;;4.80;;
3781;SDS011;6881;49.962;7.718;2022-08-11T18:36:10;6.10;;;5.57;;
3781;SDS011;6881;49.962;7.718;2022-08-11T18:38:56;5.37;;;4.87;;
3781;SDS011;6881;49.962;7.718;2022-08-11T18:41:40;5.87;;;5.30;;
3781;SDS011;6881;49.962;7.718;2022-08-11T18:44:27;5.90;;;5.27;;
3781;SDS011;6881;49.962;7.718;2022-08-11T18:47:12;5.47;;;4.97;;
3781;SDS011;6881;49.962;7.718;2022-08-11T18:49:57;4.27;;;3.93;;
3781;SDS011;6881;49.962;7.718;2022-08-11T18:52:42;5.70;;;5.20;;
3781;SDS011;6881;49.962;7.718;2022-08-11T18:55:28;5.30;;;4.87;;
3781;SDS011;6881;49.962;7.718;2022-08-11T18:58:14;5.10;;;4.70;;
3781;SDS011;6881;49.962;7.718;2022-08-11T19:01:00;5.80;;;4.50;;
3781;SDS011;6881;49.962;7.718;2022-08-11T19:03:45;5.50;;;5.00;;
3781;SDS011;6881;49.962;7.718;2022-08-11T19:06:29;5.27;;;4.80;;
3781;SDS011;6881;49.962;7.718;2022-08-11T19:09:15;5.57;;;5.07;;
3781;SDS011;6881;49.962;7.718;2022-08-11T19:12:00;5.90;;;5.30;;
3781;SDS011;6881;49.962;7.718;2022-08-11T19:14:44;5.40;;;4.90;;
3781;SDS011;6881;49.962;7.718;2022-08-11T19:17:31;5.60;;;5.03;;
3781;SDS011;6881;49.962;7.718;2022-08-11T19:20:17;5.63;;;5.13;;
3781;SDS011;6881;49.962;7.718;2022-08-11T19:23:04;7.67;;;5.87;;
3781;SDS011;6881;49.962;7.718;2022-08-11T19:25:49;5.93;;;5.47;;
3781;SDS011;6881;49.962;7.718;2022-08-11T19:28:33;5.00;;;4.60;;
3781;SDS011;6881;49.962;7.718;2022-08-11T19:31:18;5.70;;;5.27;;